sensor_id;sensor_type;location;lat;lon;timestamp;pressure;altitude;pressure_sealevel;temperature;humidity
21828;BME280;11076;47.942;11.804;2023-03-13T00:06:29;94071.84;;;3.29;100.00
21828;BME280;11076;47.942;11.804;2023-03-13T00:11:33;94067.38;;;3.15;100.00
21828;BME280;11076;47.942;11.804;2023-03-13T00:16:36;94066.34;;;3.01;100.00
21828;BME280;11076;47.942;11.804;2023-03-13T00:21:40;94058.97;;;2.96;100.00
21828;BME280;11076;47.942;11.804;2023-03-13T00:26:43;94038.28;;;2.85;100.00
21828;BME280;11076;47.942;11.804;2023-03-13T00:31:45;94031.06;;;2.79;100.00
21828;BME280;11076;47.942;11.804;2023-03-13T00:36:47;94034.59;;;2.71;100.00
21828;BME280;11076;47.942;11.804;2023-03-13T00:41:50;94024.13;;;2.63;100.00
21828;BME280;11076;47.942;11.804;2023-03-13T00:46:52;94016.81;;;2.50;100.00
21828;BME280;11076;47.942;11.804;2023-03-13T00:51:54;94011.69;;;2.34;100.00
21828;BME280;11076;47.942;11.804;2023-03-13T00:56:57;94003.84;;;2.26;100.00
21828;BME280;11076;47.942;11.804;2023-03-13T01:01:59;93995.16;;;2.17;100.00
21828;BME280;11076;47.942;11.804;2023-03-13T01:07:02;93987.44;;;2.15;100.00
21828;BME280;11076;47.942;11.804;2023-03-13T01:12:04;93980.50;;;2.14;100.00
21828;BME280;11076;47.942;11.804;2023-03-13T01:17:07;93968.81;;;2.17;100.00
21828;BME280;11076;47.942;11.804;2023-03-13T01:22:09;93964.22;;;2.11;100.00
21828;BME280;11076;47.942;11.804;2023-03-13T01:27:13;93977.59;;;2.09;100.00
21828;BME280;11076;47.942;11.804;2023-03-13T01:32:16;93966.75;;;2.04;100.00
21828;BME280;11076;47.942;11.804;2023-03-13T01:37:19;93959.19;;;2.01;100.00
21828;BME280;11076;47.942;11.804;2023-03-13T01:42:21;93969.44;;;1.96;100.00
21828;BME280;11076;47.942;11.804;2023-03-13T01:47:24;93962.88;;;1.92;100.00
21828;BME280;11076;47.942;11.804;2023-03-13T01:52:49;93946.34;;;1.75;100.00
21828;BME280;11076;47.942;11.804;2023-03-13T01:57:59;93937.34;;;1.69;100.00
21828;BME280;11076;47.942;11.804;2023-03-13T02:03:06;93940.22;;;1.59;100.00
21828;BME280;11076;47.942;11.804;2023-03-13T02:13:36;93946.69;;;1.49;100.00
21828;BME280;11076;47.942;11.804;2023-03-13T02:18:39;93942.06;;;1.51;100.00
21828;BME280;11076;47.942;11.804;2023-03-13T02:23:52;93945.56;;;1.43;100.00
21828;BME280;11076;47.942;11.804;2023-03-13T02:28:56;93944.38;;;1.54;100.00
21828;BME280;11076;47.942;11.804;2023-03-13T02:33:59;93939.38;;;1.59;100.00
21828;BME280;11076;47.942;11.804;2023-03-13T02:39:04;93929.19;;;1.56;100.00
21828;BME280;11076;47.942;11.804;2023-03-13T02:44:07;93923.22;;;1.62;100.00
21828;BME280;11076;47.942;11.804;2023-03-13T02:49:20;93938.09;;;1.55;100.00
21828;BME280;11076;47.942;11.804;2023-03-13T02:54:26;93932.38;;;1.74;100.00
21828;BME280;11076;47.942;11.804;2023-03-13T02:59:31;93957.13;;;2.11;100.00
21828;BME280;11076;47.942;11.804;2023-03-13T03:04:33;93945.09;;;2.32;100.00
21828;BME280;11076;47.942;11.804;2023-03-13T03:09:36;93963.31;;;2.56;100.00
21828;BME280;11076;47.942;11.804;2023-03-13T03:14:44;93955.16;;;2.81;100.00
21828;BME280;11076;47.942;11.804;2023-03-13T03:19:48;93965.69;;;2.96;100.00
21828;BME280;11076;47.942;11.804;2023-03-13T03:24:50;93970.97;;;2.96;100.00
21828;BME280;11076;47.942;11.804;2023-03-13T03:29:53;93969.97;;;3.12;100.00
21828;BME280;11076;47.942;11.804;2023-03-13T03:34:55;93973.16;;;3.22;100.00
21828;BME280;11076;47.942;11.804;2023-03-13T03:39:58;93964.13;;;3.31;100.00
21828;BME280;11076;47.942;11.804;2023-03-13T03:45:04;93950.69;;;3.63;100.00
21828;BME280;11076;47.942;11.804;2023-03-13T03:50:07;93956.94;;;3.98;100.00
21828;BME280;11076;47.942;11.804;2023-03-13T03:55:24;93949.06;;;4.05;100.00
21828;BME280;11076;47.942;11.804;2023-03-13T04:00:27;93942.19;;;3.89;100.00
21828;BME280;11076;47.942;11.804;2023-03-13T04:05:29;93942.81;;;3.69;100.00
21828;BME280;11076;47.942;11.804;2023-03-13T04:10:32;93934.47;;;3.51;100.00
21828;BME280;11076;47.942;11.804;2023-03-13T04:15:37;93940.06;;;3.41;100.00
21828;BME280;11076;47.942;11.804;2023-03-13T04:20:40;93931.63;;;3.31;100.00
21828;BME280;11076;47.942;11.804;2023-03-13T04:25:43;93917.44;;;3.17;100.00
21828;BME280;11076;47.942;11.804;2023-03-13T04:30:46;93922.53;;;3.04;100.00
21828;BME280;11076;47.942;11.804;2023-03-13T04:36:09;93908.44;;;2.96;100.00
21828;BME280;11076;47.942;11.804;2023-03-13T04:41:26;93893.88;;;3.01;100.00
21828;BME280;11076;47.942;11.804;2023-03-13T04:46:47;93890.25;;;2.87;100.00
21828;BME280;11076;47.942;11.804;2023-03-13T04:52:11;93884.78;;;2.73;100.00
21828;BME280;11076;47.942;11.804;2023-03-13T04:57:26;93878.88;;;2.71;100.00
21828;BME280;11076;47.942;11.804;2023-03-13T05:02:48;93874.28;;;2.80;100.00
21828;BME280;11076;47.942;11.804;2023-03-13T05:08:08;93865.69;;;3.08;100.00
21828;BME280;11076;47.942;11.804;2023-03-13T05:13:35;93848.44;;;3.27;100.00
21828;BME280;11076;47.942;11.804;2023-03-13T05:18:50;93849.72;;;3.31;100.00
21828;BME280;11076;47.942;11.804;2023-03-13T05:23:59;93839.81;;;3.39;100.00
21828;BME280;11076;47.942;11.804;2023-03-13T05:29:23;93831.91;;;3.39;100.00
21828;BME280;11076;47.942;11.804;2023-03-13T05:34:51;93828.31;;;3.47;100.00
21828;BME280;11076;47.942;11.804;2023-03-13T05:40:23;93821.06;;;3.56;100.00
21828;BME280;11076;47.942;11.804;2023-03-13T05:45:57;93826.34;;;3.56;100.00
21828;BME280;11076;47.942;11.804;2023-03-13T05:51:27;93812.63;;;3.67;100.00
21828;BME280;11076;47.942;11.804;2023-03-13T05:56:47;93813.59;;;3.88;100.00
21828;BME280;11076;47.942;11.804;2023-03-13T06:02:20;93807.22;;;4.04;100.00
21828;BME280;11076;47.942;11.804;2023-03-13T06:07:24;93805.25;;;4.12;100.00
21828;BME280;11076;47.942;11.804;2023-03-13T06:12:27;93800.81;;;4.19;100.00
21828;BME280;11076;47.942;11.804;2023-03-13T06:17:29;93788.97;;;4.15;100.00
21828;BME280;11076;47.942;11.804;2023-03-13T06:22:32;93770.28;;;4.17;100.00
21828;BME280;11076;47.942;11.804;2023-03-13T06:27:34;93776.91;;;4.34;100.00
21828;BME280;11076;47.942;11.804;2023-03-13T06:32:36;93768.50;;;4.66;100.00
21828;BME280;11076;47.942;11.804;2023-03-13T06:37:39;93764.50;;;4.96;100.00
21828;BME280;11076;47.942;11.804;2023-03-13T06:42:41;93760.44;;;5.01;100.00
21828;BME280;11076;47.942;11.804;2023-03-13T06:47:44;93765.13;;;4.92;100.00
21828;BME280;11076;47.942;11.804;2023-03-13T06:52:46;93754.38;;;5.13;100.00
21828;BME280;11076;47.942;11.804;2023-03-13T06:57:50;93762.56;;;5.32;100.00
21828;BME280;11076;47.942;11.804;2023-03-13T07:02:53;93753.19;;;5.43;100.00
21828;BME280;11076;47.942;11.804;2023-03-13T07:07:55;93749.94;;;5.54;100.00
21828;BME280;11076;47.942;11.804;2023-03-13T07:12:58;93757.88;;;5.81;100.00
21828;BME280;11076;47.942;11.804;2023-03-13T07:18:00;93747.91;;;6.09;94.59
21828;BME280;11076;47.942;11.804;2023-03-13T07:23:02;93765.22;;;6.32;89.19
21828;BME280;11076;47.942;11.804;2023-03-13T07:28:05;93773.13;;;6.59;85.31
21828;BME280;11076;47.942;11.804;2023-03-13T07:33:07;93772.97;;;6.92;85.60
21828;BME280;11076;47.942;11.804;2023-03-13T07:38:09;93760.06;;;7.34;86.63
21828;BME280;11076;47.942;11.804;2023-03-13T07:43:12;93752.47;;;7.69;84.42
21828;BME280;11076;47.942;11.804;2023-03-13T07:48:14;93764.63;;;7.84;81.88
21828;BME280;11076;47.942;11.804;2023-03-13T07:53:16;93756.94;;;7.75;82.70
21828;BME280;11076;47.942;11.804;2023-03-13T07:58:23;93735.34;;;7.90;82.84
21828;BME280;11076;47.942;11.804;2023-03-13T08:03:26;93747.41;;;8.11;81.29
21828;BME280;11076;47.942;11.804;2023-03-13T08:08:29;93741.63;;;7.96;81.22
21828;BME280;11076;47.942;11.804;2023-03-13T08:13:32;93736.13;;;7.91;83.92
21828;BME280;11076;47.942;11.804;2023-03-13T08:18:36;93720.41;;;7.64;87.01
21828;BME280;11076;47.942;11.804;2023-03-13T08:23:39;93733.38;;;8.04;84.98
21828;BME280;11076;47.942;11.804;2023-03-13T08:28:43;93727.28;;;8.59;79.88
21828;BME280;11076;47.942;11.804;2023-03-13T08:33:46;93729.50;;;9.29;75.47
21828;BME280;11076;47.942;11.804;2023-03-13T08:38:48;93730.34;;;9.42;72.58
21828;BME280;11076;47.942;11.804;2023-03-13T08:43:51;93720.38;;;10.03;75.13
21828;BME280;11076;47.942;11.804;2023-03-13T08:48:54;93721.75;;;10.05;78.24
21828;BME280;11076;47.942;11.804;2023-03-13T08:53:56;93716.03;;;9.90;77.11
21828;BME280;11076;47.942;11.804;2023-03-13T08:59:00;93735.84;;;9.70;78.34
21828;BME280;11076;47.942;11.804;2023-03-13T09:04:04;93742.50;;;9.38;72.97
21828;BME280;11076;47.942;11.804;2023-03-13T09:09:07;93741.25;;;9.10;73.65
21828;BME280;11076;47.942;11.804;2023-03-13T09:14:10;93723.84;;;9.38;76.81
21828;BME280;11076;47.942;11.804;2023-03-13T09:19:12;93711.38;;;9.73;79.80
21828;BME280;11076;47.942;11.804;2023-03-13T09:24:15;93714.34;;;10.31;81.01
21828;BME280;11076;47.942;11.804;2023-03-13T09:29:18;93707.28;;;10.77;80.67
21828;BME280;11076;47.942;11.804;2023-03-13T09:34:20;93697.59;;;11.28;80.98
21828;BME280;11076;47.942;11.804;2023-03-13T09:39:24;93700.91;;;11.64;80.80
21828;BME280;11076;47.942;11.804;2023-03-13T09:44:39;93687.88;;;12.41;77.73
21828;BME280;11076;47.942;11.804;2023-03-13T09:49:47;93691.38;;;12.41;74.21
21828;BME280;11076;47.942;11.804;2023-03-13T10:00:07;93668.22;;;12.74;67.23
21828;BME280;11076;47.942;11.804;2023-03-13T10:05:23;93661.03;;;12.80;68.58
21828;BME280;11076;47.942;11.804;2023-03-13T10:10:42;93657.81;;;12.56;66.75
21828;BME280;11076;47.942;11.804;2023-03-13T10:15:49;93658.38;;;13.07;65.15
21828;BME280;11076;47.942;11.804;2023-03-13T10:20:56;93657.56;;;13.56;64.93
21828;BME280;11076;47.942;11.804;2023-03-13T10:25:59;93659.22;;;13.94;65.28
21828;BME280;11076;47.942;11.804;2023-03-13T10:31:10;93662.34;;;14.18;61.79
21828;BME280;11076;47.942;11.804;2023-03-13T10:36:18;93654.31;;;14.61;62.42
21828;BME280;11076;47.942;11.804;2023-03-13T10:41:33;93646.06;;;14.88;61.94
21828;BME280;11076;47.942;11.804;2023-03-13T10:46:43;93635.16;;;15.30;60.28
21828;BME280;11076;47.942;11.804;2023-03-13T10:56:51;93627.66;;;16.25;54.70
21828;BME280;11076;47.942;11.804;2023-03-13T11:01:59;93630.38;;;16.15;50.28
21828;BME280;11076;47.942;11.804;2023-03-13T11:07:05;93616.91;;;15.99;49.47
21828;BME280;11076;47.942;11.804;2023-03-13T11:12:17;93599.38;;;15.91;48.90
21828;BME280;11076;47.942;11.804;2023-03-13T11:17:39;93594.28;;;15.90;50.57
21828;BME280;11076;47.942;11.804;2023-03-13T11:28:17;93587.78;;;16.22;50.38
21828;BME280;11076;47.942;11.804;2023-03-13T11:38:42;93588.88;;;15.95;46.27
21828;BME280;11076;47.942;11.804;2023-03-13T11:44:08;93582.88;;;16.34;46.65
21828;BME280;11076;47.942;11.804;2023-03-13T11:55:21;93538.59;;;16.50;46.07
21828;BME280;11076;47.942;11.804;2023-03-13T12:05:47;93536.63;;;16.66;46.13
21828;BME280;11076;47.942;11.804;2023-03-13T12:11:03;93511.53;;;16.66;44.04
21828;BME280;11076;47.942;11.804;2023-03-13T12:16:14;93494.44;;;16.91;45.57
21828;BME280;11076;47.942;11.804;2023-03-13T12:21:31;93492.28;;;17.27;45.46
21828;BME280;11076;47.942;11.804;2023-03-13T12:26:46;93484.59;;;17.40;44.90
21828;BME280;11076;47.942;11.804;2023-03-13T12:32:02;93466.66;;;17.83;45.30
21828;BME280;11076;47.942;11.804;2023-03-13T12:37:13;93458.22;;;17.90;44.39
21828;BME280;11076;47.942;11.804;2023-03-13T12:42:43;93456.75;;;17.74;44.33
21828;BME280;11076;47.942;11.804;2023-03-13T12:58:40;93434.03;;;17.45;46.98
21828;BME280;11076;47.942;11.804;2023-03-13T13:03:52;93423.78;;;17.72;47.09
21828;BME280;11076;47.942;11.804;2023-03-13T13:09:12;93406.09;;;18.08;46.99
21828;BME280;11076;47.942;11.804;2023-03-13T13:24:49;93383.16;;;18.25;45.97
21828;BME280;11076;47.942;11.804;2023-03-13T13:29:53;93379.88;;;18.28;47.81
21828;BME280;11076;47.942;11.804;2023-03-13T13:50:21;93353.56;;;18.53;47.89
21828;BME280;11076;47.942;11.804;2023-03-13T14:00:44;93350.78;;;18.58;48.48
21828;BME280;11076;47.942;11.804;2023-03-13T14:06:02;93340.25;;;18.37;49.09
21828;BME280;11076;47.942;11.804;2023-03-13T14:11:21;93329.13;;;18.20;49.37
21828;BME280;11076;47.942;11.804;2023-03-13T14:16:25;93318.47;;;18.09;49.35
21828;BME280;11076;47.942;11.804;2023-03-13T14:21:28;93319.69;;;17.98;49.33
21828;BME280;11076;47.942;11.804;2023-03-13T14:26:30;93318.22;;;17.87;49.36
21828;BME280;11076;47.942;11.804;2023-03-13T14:31:37;93314.63;;;17.92;49.83
21828;BME280;11076;47.942;11.804;2023-03-13T14:36:54;93300.03;;;18.12;49.48
21828;BME280;11076;47.942;11.804;2023-03-13T14:42:11;93287.47;;;18.21;48.42
21828;BME280;11076;47.942;11.804;2023-03-13T14:47:24;93273.22;;;18.15;48.79
21828;BME280;11076;47.942;11.804;2023-03-13T14:52:27;93260.22;;;17.74;50.91
21828;BME280;11076;47.942;11.804;2023-03-13T14:57:32;93258.34;;;17.50;53.15
21828;BME280;11076;47.942;11.804;2023-03-13T15:02:34;93238.03;;;17.10;54.20
21828;BME280;11076;47.942;11.804;2023-03-13T15:07:41;93233.72;;;16.85;54.61
21828;BME280;11076;47.942;11.804;2023-03-13T15:12:44;93227.03;;;16.77;54.94
21828;BME280;11076;47.942;11.804;2023-03-13T15:17:46;93210.34;;;16.75;54.00
21828;BME280;11076;47.942;11.804;2023-03-13T15:22:48;93202.56;;;16.39;55.64
21828;BME280;11076;47.942;11.804;2023-03-13T15:27:51;93197.19;;;16.05;56.79
21828;BME280;11076;47.942;11.804;2023-03-13T15:32:53;93193.88;;;15.79;57.99
21828;BME280;11076;47.942;11.804;2023-03-13T15:37:57;93185.84;;;15.63;58.98
21828;BME280;11076;47.942;11.804;2023-03-13T15:43:00;93171.66;;;15.52;59.82
21828;BME280;11076;47.942;11.804;2023-03-13T15:48:20;93156.16;;;15.29;61.43
21828;BME280;11076;47.942;11.804;2023-03-13T15:53:24;93149.22;;;15.23;62.11
21828;BME280;11076;47.942;11.804;2023-03-13T15:58:28;93138.22;;;15.14;61.07
21828;BME280;11076;47.942;11.804;2023-03-13T16:03:30;93136.03;;;15.21;60.94
21828;BME280;11076;47.942;11.804;2023-03-13T16:08:33;93115.47;;;15.36;59.16
21828;BME280;11076;47.942;11.804;2023-03-13T16:13:36;93100.44;;;15.29;57.85
21828;BME280;11076;47.942;11.804;2023-03-13T16:18:38;93094.00;;;15.25;57.40
21828;BME280;11076;47.942;11.804;2023-03-13T16:23:41;93089.09;;;14.88;57.68
21828;BME280;11076;47.942;11.804;2023-03-13T16:28:43;93071.78;;;14.39;57.94
21828;BME280;11076;47.942;11.804;2023-03-13T16:33:47;93058.75;;;13.97;58.42
21828;BME280;11076;47.942;11.804;2023-03-13T16:38:50;93066.59;;;13.47;59.87
21828;BME280;11076;47.942;11.804;2023-03-13T16:43:53;93049.88;;;13.09;60.56
21828;BME280;11076;47.942;11.804;2023-03-13T16:48:56;93034.06;;;13.02;59.03
21828;BME280;11076;47.942;11.804;2023-03-13T16:53:59;93004.00;;;13.00;58.43
21828;BME280;11076;47.942;11.804;2023-03-13T16:59:05;93005.56;;;12.60;60.13
21828;BME280;11076;47.942;11.804;2023-03-13T17:04:09;92987.28;;;12.37;62.13
21828;BME280;11076;47.942;11.804;2023-03-13T17:09:15;92974.56;;;12.01;62.99
21828;BME280;11076;47.942;11.804;2023-03-13T17:14:18;92979.00;;;11.85;62.60
21828;BME280;11076;47.942;11.804;2023-03-13T17:19:21;92977.13;;;11.81;62.47
21828;BME280;11076;47.942;11.804;2023-03-13T17:24:23;92965.34;;;11.82;61.95
21828;BME280;11076;47.942;11.804;2023-03-13T17:29:25;92959.88;;;11.61;62.26
21828;BME280;11076;47.942;11.804;2023-03-13T17:34:28;92953.84;;;11.33;63.70
21828;BME280;11076;47.942;11.804;2023-03-13T17:39:32;92951.09;;;11.23;63.94
21828;BME280;11076;47.942;11.804;2023-03-13T17:44:34;92932.00;;;11.04;64.37
21828;BME280;11076;47.942;11.804;2023-03-13T17:49:37;92929.75;;;11.28;62.05
21828;BME280;11076;47.942;11.804;2023-03-13T17:54:39;92916.22;;;11.08;63.47
21828;BME280;11076;47.942;11.804;2023-03-13T17:59:42;92916.38;;;10.91;63.72
21828;BME280;11076;47.942;11.804;2023-03-13T18:04:45;92908.00;;;10.82;64.54
21828;BME280;11076;47.942;11.804;2023-03-13T18:09:49;92885.47;;;10.68;64.95
21828;BME280;11076;47.942;11.804;2023-03-13T18:14:51;92888.63;;;10.60;65.18
21828;BME280;11076;47.942;11.804;2023-03-13T18:19:53;92883.31;;;10.65;65.15
21828;BME280;11076;47.942;11.804;2023-03-13T18:24:56;92889.97;;;10.62;65.40
21828;BME280;11076;47.942;11.804;2023-03-13T18:29:58;92886.63;;;10.45;65.45
21828;BME280;11076;47.942;11.804;2023-03-13T18:35:00;92883.72;;;10.24;66.45
21828;BME280;11076;47.942;11.804;2023-03-13T18:40:13;92872.00;;;9.98;67.53
21828;BME280;11076;47.942;11.804;2023-03-13T18:45:19;92866.06;;;9.91;68.41
21828;BME280;11076;47.942;11.804;2023-03-13T18:50:26;92850.06;;;9.91;69.40
21828;BME280;11076;47.942;11.804;2023-03-13T18:55:29;92847.03;;;9.55;70.14
21828;BME280;11076;47.942;11.804;2023-03-13T19:00:32;92814.03;;;9.17;74.04
21828;BME280;11076;47.942;11.804;2023-03-13T19:05:34;92797.44;;;8.71;75.01
21828;BME280;11076;47.942;11.804;2023-03-13T19:10:37;92782.06;;;8.39;76.11
21828;BME280;11076;47.942;11.804;2023-03-13T19:15:39;92778.53;;;8.16;78.00
21828;BME280;11076;47.942;11.804;2023-03-13T19:20:42;92762.31;;;8.01;77.74
21828;BME280;11076;47.942;11.804;2023-03-13T19:25:44;92760.47;;;7.85;79.70
21828;BME280;11076;47.942;11.804;2023-03-13T19:30:46;92742.16;;;7.71;79.98
21828;BME280;11076;47.942;11.804;2023-03-13T19:35:49;92738.22;;;7.57;84.00
21828;BME280;11076;47.942;11.804;2023-03-13T19:40:51;92729.41;;;7.40;86.08
21828;BME280;11076;47.942;11.804;2023-03-13T19:45:54;92706.78;;;7.37;87.40
21828;BME280;11076;47.942;11.804;2023-03-13T19:50:56;92715.34;;;7.10;86.27
21828;BME280;11076;47.942;11.804;2023-03-13T19:56:00;92714.44;;;7.05;87.63
21828;BME280;11076;47.942;11.804;2023-03-13T20:01:02;92699.63;;;7.09;87.47
21828;BME280;11076;47.942;11.804;2023-03-13T20:11:22;92692.69;;;7.08;87.56
21828;BME280;11076;47.942;11.804;2023-03-13T20:16:25;92695.41;;;6.96;89.76
21828;BME280;11076;47.942;11.804;2023-03-13T20:21:34;92691.03;;;6.90;89.16
21828;BME280;11076;47.942;11.804;2023-03-13T20:26:37;92691.78;;;6.85;90.03
21828;BME280;11076;47.942;11.804;2023-03-13T20:31:39;92689.50;;;6.77;89.79
21828;BME280;11076;47.942;11.804;2023-03-13T20:36:42;92682.38;;;6.66;89.70
21828;BME280;11076;47.942;11.804;2023-03-13T20:41:44;92685.13;;;6.71;89.90
21828;BME280;11076;47.942;11.804;2023-03-13T20:46:46;92708.34;;;6.64;90.32
21828;BME280;11076;47.942;11.804;2023-03-13T20:51:49;92705.50;;;6.42;91.30
21828;BME280;11076;47.942;11.804;2023-03-13T20:56:51;92719.97;;;6.22;93.70
21828;BME280;11076;47.942;11.804;2023-03-13T21:01:54;92712.72;;;6.06;95.23
21828;BME280;11076;47.942;11.804;2023-03-13T21:06:56;92705.66;;;5.88;95.15
21828;BME280;11076;47.942;11.804;2023-03-13T21:12:06;92708.75;;;5.85;94.60
21828;BME280;11076;47.942;11.804;2023-03-13T21:17:09;92703.13;;;5.93;94.31
21828;BME280;11076;47.942;11.804;2023-03-13T21:22:13;92692.13;;;6.36;93.53
21828;BME280;11076;47.942;11.804;2023-03-13T21:27:16;92673.31;;;6.79;90.87
21828;BME280;11076;47.942;11.804;2023-03-13T21:32:18;92665.09;;;6.80;90.26
21828;BME280;11076;47.942;11.804;2023-03-13T21:37:21;92673.50;;;6.89;89.11
21828;BME280;11076;47.942;11.804;2023-03-13T21:42:24;92660.34;;;7.11;86.74
21828;BME280;11076;47.942;11.804;2023-03-13T21:47:27;92644.72;;;7.31;85.07
21828;BME280;11076;47.942;11.804;2023-03-13T21:52:29;92660.13;;;7.80;81.27
21828;BME280;11076;47.942;11.804;2023-03-13T21:57:37;92658.47;;;8.35;76.46
21828;BME280;11076;47.942;11.804;2023-03-13T22:02:40;92678.06;;;8.68;71.05
21828;BME280;11076;47.942;11.804;2023-03-13T22:07:43;92683.00;;;8.81;67.72
21828;BME280;11076;47.942;11.804;2023-03-13T22:12:46;92694.84;;;8.68;68.10
21828;BME280;11076;47.942;11.804;2023-03-13T22:17:48;92702.50;;;8.60;67.99
21828;BME280;11076;47.942;11.804;2023-03-13T22:22:51;92722.56;;;8.89;66.66
21828;BME280;11076;47.942;11.804;2023-03-13T22:27:53;92722.13;;;9.25;65.17
21828;BME280;11076;47.942;11.804;2023-03-13T22:32:55;92717.97;;;9.61;63.10
21828;BME280;11076;47.942;11.804;2023-03-13T22:37:58;92723.69;;;9.75;59.71
21828;BME280;11076;47.942;11.804;2023-03-13T22:43:00;92779.72;;;10.07;56.52
21828;BME280;11076;47.942;11.804;2023-03-13T22:48:03;92881.75;;;9.60;63.33
21828;BME280;11076;47.942;11.804;2023-03-13T22:53:07;92916.72;;;9.86;62.08
21828;BME280;11076;47.942;11.804;2023-03-13T22:58:10;92918.66;;;10.18;66.82
21828;BME280;11076;47.942;11.804;2023-03-13T23:03:12;92936.03;;;10.20;72.63
21828;BME280;11076;47.942;11.804;2023-03-13T23:08:15;92921.59;;;9.89;79.88
21828;BME280;11076;47.942;11.804;2023-03-13T23:13:18;92925.22;;;9.61;82.97
21828;BME280;11076;47.942;11.804;2023-03-13T23:18:22;92937.88;;;9.26;84.36
21828;BME280;11076;47.942;11.804;2023-03-13T23:23:25;92949.28;;;9.05;85.07
21828;BME280;11076;47.942;11.804;2023-03-13T23:28:28;92961.91;;;8.75;85.06
21828;BME280;11076;47.942;11.804;2023-03-13T23:33:30;92977.09;;;8.58;85.05
21828;BME280;11076;47.942;11.804;2023-03-13T23:38:32;92991.94;;;8.54;86.90
21828;BME280;11076;47.942;11.804;2023-03-13T23:43:35;92967.47;;;8.57;88.10
21828;BME280;11076;47.942;11.804;2023-03-13T23:48:38;92933.16;;;8.61;90.72
21828;BME280;11076;47.942;11.804;2023-03-13T23:53:41;92935.44;;;8.52;90.32
21828;BME280;11076;47.942;11.804;2023-03-13T23:58:44;92944.13;;;8.47;91.70
